createdAt,value
2018-03-29T06:15:47.386Z,6.56
2018-03-29T06:16:47.334Z,6.49
2018-03-29T06:17:47.304Z,6.48
2018-03-29T06:18:47.231Z,6.55
2018-03-29T06:19:47.186Z,6.51
2018-03-29T06:20:47.128Z,6.52
2018-03-29T06:21:47.078Z,6.56
2018-03-29T06:22:47.025Z,6.55
2018-03-29T06:23:46.972Z,6.59
2018-03-29T06:24:46.922Z,6.56
2018-03-29T06:25:46.871Z,6.69
2018-03-29T06:26:46.819Z,6.59
2018-03-29T06:27:46.766Z,6.61
2018-03-29T06:28:46.715Z,6.62
2018-03-29T06:29:46.664Z,6.61
2018-03-29T06:30:46.612Z,6.61
2018-03-29T06:31:46.561Z,6.59
2018-03-29T06:32:46.509Z,6.69
2018-03-29T06:33:46.459Z,6.73
2018-03-29T06:34:46.407Z,6.76
2018-03-29T06:35:46.355Z,6.77
2018-03-29T06:36:46.304Z,6.76
2018-03-29T06:37:46.253Z,6.66
2018-03-29T06:38:46.204Z,6.74
2018-03-29T06:39:46.150Z,6.73
2018-03-29T06:40:46.098Z,6.69
2018-03-29T06:41:46.053Z,6.70
2018-03-29T06:42:45.997Z,6.74
2018-03-29T06:43:45.948Z,6.69
2018-03-29T06:44:45.896Z,6.71
2018-03-29T06:45:45.845Z,6.70
2018-03-29T06:46:45.792Z,6.87
2018-03-29T06:47:45.739Z,6.70
2018-03-29T06:48:45.688Z,6.87
2018-03-29T06:49:45.637Z,6.71
2018-03-29T06:50:45.586Z,6.84
2018-03-29T06:51:45.534Z,6.74
2018-03-29T06:52:45.484Z,6.69
2018-03-29T06:53:45.432Z,6.73
2018-03-29T06:54:45.412Z,6.81
2018-03-29T06:55:45.329Z,6.81
2018-03-29T06:56:45.281Z,6.87
2018-03-29T06:57:45.227Z,6.89
2018-03-29T06:58:45.176Z,6.84
2018-03-29T06:59:45.123Z,6.89
2018-03-29T07:00:45.073Z,6.89
2018-03-29T07:01:45.026Z,6.87
2018-03-29T07:02:44.971Z,6.85
2018-03-29T07:03:44.925Z,6.87
2018-03-29T07:04:44.867Z,6.92
2018-03-29T07:05:44.817Z,6.81
2018-03-29T07:06:44.766Z,6.84
2018-03-29T07:07:44.716Z,6.87
2018-03-29T07:08:44.662Z,6.88
2018-03-29T07:09:44.611Z,6.97
2018-03-29T07:10:44.560Z,6.95
2018-03-29T07:11:44.509Z,6.94
2018-03-29T07:12:44.462Z,6.97
2018-03-29T07:13:44.406Z,6.94
2018-03-29T07:14:44.356Z,7.02
2018-03-29T07:15:44.306Z,7.02
2018-03-29T07:16:44.257Z,7.07
2018-03-29T07:17:44.201Z,7.10
2018-03-29T07:18:44.158Z,7.02
2018-03-29T07:19:44.099Z,7.03
2018-03-29T07:20:44.048Z,7.06
2018-03-29T07:21:44.006Z,7.07
2018-03-29T07:22:43.998Z,7.15
2018-03-29T07:23:43.895Z,7.12
2018-03-29T07:24:43.843Z,7.16
2018-03-29T07:25:43.793Z,7.16
2018-03-29T07:26:43.751Z,7.13
2018-03-29T07:27:43.690Z,7.20
2018-03-29T07:28:43.639Z,7.16
2018-03-29T07:29:43.589Z,7.20
2018-03-29T07:30:43.541Z,7.20
2018-03-29T07:31:43.486Z,7.16
2018-03-29T07:32:43.434Z,7.24
2018-03-29T07:33:43.383Z,7.17
2018-03-29T07:34:43.333Z,7.20
2018-03-29T07:35:43.281Z,7.27
2018-03-29T07:36:43.231Z,7.37
2018-03-29T07:37:43.180Z,7.32
2018-03-29T07:38:43.129Z,7.32
2018-03-29T07:39:43.077Z,7.37
2018-03-29T07:40:43.027Z,7.40
2018-03-29T07:41:42.976Z,7.40
2018-03-29T07:42:42.926Z,7.40
2018-03-29T07:43:42.874Z,7.49
2018-03-29T07:44:42.825Z,7.39
2018-03-29T07:45:42.773Z,7.43
2018-03-29T07:46:42.723Z,7.49
2018-03-29T07:47:42.672Z,7.52
2018-03-29T07:48:42.620Z,7.48
2018-03-29T07:49:42.569Z,7.52
2018-03-29T07:50:42.519Z,7.42
2018-03-29T07:51:42.468Z,7.35
2018-03-29T07:52:42.419Z,7.50
2018-03-29T07:53:42.367Z,7.48
2018-03-29T07:54:42.317Z,7.46
2018-03-29T07:55:42.264Z,7.50
2018-03-29T07:56:42.214Z,7.43
2018-03-29T07:57:42.164Z,7.45
2018-03-29T07:58:42.113Z,7.57
2018-03-29T07:59:42.062Z,7.53
2018-03-29T08:00:42.012Z,7.52
2018-03-29T08:01:41.962Z,7.68
2018-03-29T08:02:41.910Z,7.69
2018-03-29T08:03:41.860Z,7.60
2018-03-29T08:04:41.810Z,7.72
2018-03-29T08:05:41.759Z,7.61
2018-03-29T08:06:41.716Z,7.64
2018-03-29T08:07:41.666Z,7.61
2018-03-29T08:08:41.608Z,7.58
2018-03-29T08:09:41.557Z,7.50
2018-03-29T08:10:41.508Z,7.58
2018-03-29T08:11:41.455Z,7.46
2018-03-29T08:12:41.405Z,7.53
2018-03-29T08:13:41.355Z,7.50
2018-03-29T08:14:41.304Z,7.43
2018-03-29T08:15:41.260Z,7.42
2018-03-29T08:16:41.202Z,7.50
2018-03-29T08:17:41.152Z,7.40
2018-03-29T08:18:41.102Z,7.49
2018-03-29T08:19:41.050Z,7.50
2018-03-29T08:20:41.000Z,7.50
2018-03-29T08:21:40.950Z,7.50
2018-03-29T08:22:40.898Z,7.48
2018-03-29T08:23:40.847Z,7.46
2018-03-29T08:24:40.796Z,7.50
2018-03-29T08:25:40.746Z,7.55
2018-03-29T08:26:40.696Z,7.55
2018-03-29T08:27:40.644Z,7.69
2018-03-29T08:28:40.598Z,7.64
2018-03-29T08:29:40.543Z,7.71
2018-03-29T08:30:40.493Z,7.72
2018-03-29T08:31:40.445Z,7.74
2018-03-29T08:32:40.391Z,7.69
2018-03-29T08:33:40.342Z,7.80
2018-03-29T08:34:40.291Z,7.74
2018-03-29T08:35:40.239Z,7.74
2018-03-29T08:36:40.191Z,7.75
2018-03-29T08:37:40.140Z,7.82
2018-03-29T08:38:40.089Z,7.85
2018-03-29T08:39:40.038Z,7.92
2018-03-29T08:40:39.988Z,7.89
2018-03-29T08:41:39.938Z,7.92
2018-03-29T08:42:39.887Z,8.07
2018-03-29T08:43:39.836Z,8.10
2018-03-29T08:44:39.787Z,8.29
2018-03-29T08:45:39.736Z,8.40
2018-03-29T08:46:39.686Z,8.45
2018-03-29T08:47:39.636Z,8.65
2018-03-29T08:48:39.586Z,8.59
2018-03-29T08:49:39.536Z,8.74
2018-03-29T08:50:39.490Z,8.63
2018-03-29T08:51:39.435Z,8.44
2018-03-29T08:52:39.386Z,8.48
2018-03-29T08:53:39.337Z,8.48
2018-03-29T08:54:39.287Z,8.44
2018-03-29T08:55:39.236Z,8.43
2018-03-29T08:56:39.187Z,8.52
2018-03-29T08:57:39.139Z,8.45
2018-03-29T08:58:39.088Z,8.45
2018-03-29T08:59:39.037Z,8.36
2018-03-29T09:00:38.991Z,8.56
2018-03-29T09:01:38.938Z,8.53
2018-03-29T09:02:38.888Z,8.61
2018-03-29T09:03:38.838Z,8.66
2018-03-29T09:04:38.788Z,8.76
2018-03-29T09:05:38.740Z,8.76
2018-03-29T09:06:38.690Z,8.86
2018-03-29T09:07:38.640Z,8.96
2018-03-29T09:08:38.594Z,8.99
2018-03-29T09:09:38.542Z,8.96
2018-03-29T09:10:38.495Z,9.15
2018-03-29T09:11:38.443Z,9.33
2018-03-29T09:12:38.393Z,9.38
2018-03-29T09:13:38.344Z,9.53
2018-03-29T09:14:38.295Z,9.57
2018-03-29T09:15:38.248Z,9.66
2018-03-29T09:16:38.197Z,9.71
2018-03-29T09:17:38.148Z,9.72
2018-03-29T09:18:38.100Z,9.78
2018-03-29T09:19:38.051Z,9.91
2018-03-29T09:20:38.002Z,9.97
2018-03-29T09:21:37.954Z,10.07
2018-03-29T09:22:37.919Z,10.17
2018-03-29T09:23:37.859Z,10.29
2018-03-29T09:24:37.858Z,10.27
2018-03-29T09:25:37.760Z,10.48
2018-03-29T09:26:37.714Z,10.66
2018-03-29T09:27:37.664Z,10.81
2018-03-29T09:28:37.616Z,11.07
2018-03-29T09:29:37.570Z,11.36
2018-03-29T09:30:37.522Z,11.75
2018-03-29T09:31:37.472Z,12.02
2018-03-29T09:32:37.425Z,12.16
2018-03-29T09:33:37.381Z,12.45
2018-03-29T09:34:37.332Z,12.83
2018-03-29T09:35:37.293Z,13.17
2018-03-29T09:36:37.238Z,13.36
2018-03-29T09:37:37.192Z,13.49
2018-03-29T09:38:37.147Z,13.52
2018-03-29T09:39:37.100Z,13.42
2018-03-29T09:40:37.054Z,13.45
2018-03-29T09:41:37.061Z,13.26
2018-03-29T09:42:36.964Z,13.23
2018-03-29T09:43:36.917Z,13.15
2018-03-29T09:44:36.872Z,12.96
2018-03-29T09:45:36.826Z,12.96
2018-03-29T09:46:36.781Z,12.78
2018-03-29T09:47:36.735Z,12.54
2018-03-29T09:48:36.690Z,12.50
2018-03-29T09:49:36.644Z,12.47
2018-03-29T09:50:36.599Z,12.47
2018-03-29T09:51:36.553Z,12.31
2018-03-29T09:52:36.508Z,12.17
2018-03-29T09:53:36.462Z,12.10
2018-03-29T09:54:36.420Z,12.02
2018-03-29T09:55:36.379Z,12.05
2018-03-29T09:56:36.324Z,12.01
2018-03-29T09:57:36.280Z,12.10
2018-03-29T09:58:36.233Z,12.13
2018-03-29T09:59:36.186Z,12.21
2018-03-29T10:00:36.140Z,12.13
2018-03-29T10:01:36.098Z,12.29
2018-03-29T10:02:36.048Z,12.38
2018-03-29T10:03:36.002Z,12.28
2018-03-29T10:04:35.956Z,12.35
2018-03-29T10:05:35.911Z,12.39
2018-03-29T10:06:35.865Z,12.42
2018-03-29T10:07:35.818Z,12.50
2018-03-29T10:08:35.772Z,12.56
2018-03-29T10:09:35.727Z,12.62
2018-03-29T10:10:35.681Z,12.62
2018-03-29T10:11:35.651Z,12.70
2018-03-29T10:12:35.588Z,12.72
2018-03-29T10:13:35.547Z,12.86
2018-03-29T10:14:35.498Z,12.75
2018-03-29T10:15:35.458Z,12.75
2018-03-29T10:16:35.406Z,12.72
2018-03-29T10:17:35.360Z,12.68
2018-03-29T10:18:35.314Z,12.50
2018-03-29T10:19:35.268Z,12.46
2018-03-29T10:20:35.222Z,12.07
2018-03-29T10:21:35.177Z,11.88
2018-03-29T10:22:35.134Z,11.69
2018-03-29T10:23:35.084Z,11.57
2018-03-29T10:24:35.038Z,11.40
2018-03-29T10:25:34.992Z,11.28
2018-03-29T10:26:34.945Z,11.29
2018-03-29T10:27:34.898Z,11.17
2018-03-29T10:28:34.852Z,11.11
2018-03-29T10:29:34.805Z,11.17
2018-03-29T10:30:34.758Z,11.28
2018-03-29T10:31:34.713Z,11.44
2018-03-29T10:32:34.668Z,11.46
2018-03-29T10:33:34.669Z,11.60
2018-03-29T10:34:34.571Z,11.64
2018-03-29T10:35:34.523Z,11.70
2018-03-29T10:36:34.477Z,11.67
2018-03-29T10:37:34.430Z,11.75
2018-03-29T10:38:34.383Z,11.67
2018-03-29T10:39:34.338Z,11.73
2018-03-29T10:40:34.295Z,11.67
2018-03-29T10:41:34.243Z,11.73
2018-03-29T10:42:34.197Z,11.73
2018-03-29T10:43:34.151Z,11.73
2018-03-29T10:44:34.102Z,11.73
2018-03-29T10:45:34.056Z,11.69
2018-03-29T10:46:34.028Z,11.52
2018-03-29T10:47:33.961Z,11.55
2018-03-29T10:48:33.915Z,11.43
2018-03-29T10:49:33.869Z,11.44
2018-03-29T10:50:33.822Z,11.37
2018-03-29T10:51:33.773Z,11.42
2018-03-29T10:52:33.735Z,11.39
2018-03-29T10:53:33.682Z,11.33
2018-03-29T10:54:33.634Z,11.28
2018-03-29T10:55:33.585Z,11.15
2018-03-29T10:56:33.538Z,11.09
2018-03-29T10:57:33.491Z,10.99
2018-03-29T10:58:33.445Z,10.85
2018-03-29T10:59:33.396Z,10.71
2018-03-29T11:00:33.399Z,10.76
2018-03-29T11:01:33.302Z,10.60
2018-03-29T11:02:33.254Z,10.45
2018-03-29T11:03:33.206Z,10.42
2018-03-29T11:04:33.159Z,10.27
2018-03-29T11:05:33.111Z,10.29
2018-03-29T11:06:33.113Z,10.20
2018-03-29T11:07:33.015Z,10.18
2018-03-29T11:08:32.966Z,10.17
2018-03-29T11:09:32.919Z,10.20
2018-03-29T11:10:32.871Z,10.23
2018-03-29T11:11:32.822Z,10.29
2018-03-29T11:12:32.774Z,10.22
2018-03-29T11:13:32.725Z,10.29
2018-03-29T11:14:32.678Z,10.42
2018-03-29T11:15:32.629Z,10.42
2018-03-29T11:16:32.585Z,10.40
2018-03-29T11:17:32.534Z,10.38
2018-03-29T11:18:32.486Z,10.32
2018-03-29T11:19:32.445Z,10.26
2018-03-29T11:20:32.388Z,10.22
2018-03-29T11:21:32.342Z,10.32
2018-03-29T11:22:32.293Z,10.26
2018-03-29T11:23:32.244Z,10.47
2018-03-29T11:24:32.195Z,10.42
2018-03-29T11:25:32.148Z,10.48
2018-03-29T11:26:32.100Z,10.45
2018-03-29T11:27:32.053Z,10.51
2018-03-29T11:28:32.003Z,10.42
2018-03-29T11:29:31.955Z,10.40
2018-03-29T11:30:31.907Z,10.41
2018-03-29T11:31:31.858Z,10.33
2018-03-29T11:32:31.810Z,10.20
2018-03-29T11:33:31.829Z,10.18
2018-03-29T11:34:31.715Z,10.17
2018-03-29T11:35:31.666Z,10.14
2018-03-29T11:36:31.617Z,10.05
2018-03-29T11:37:31.570Z,10.12
2018-03-29T11:38:31.521Z,10.12
2018-03-29T11:39:31.472Z,10.17
2018-03-29T11:40:31.424Z,10.29
2018-03-29T11:41:31.376Z,10.29
2018-03-29T11:42:31.331Z,10.29
2018-03-29T11:43:31.283Z,10.42
2018-03-29T11:44:31.231Z,10.41
2018-03-29T11:45:31.183Z,10.51
2018-03-29T11:46:31.135Z,10.53
2018-03-29T11:47:31.086Z,10.55
2018-03-29T11:48:31.038Z,10.59
2018-03-29T11:49:30.990Z,10.70
2018-03-29T11:50:30.943Z,10.70
2018-03-29T11:51:30.894Z,10.79
2018-03-29T11:52:30.846Z,10.86
2018-03-29T11:53:30.798Z,10.92
2018-03-29T11:54:30.751Z,11.02
2018-03-29T11:55:30.702Z,11.09
2018-03-29T11:56:30.655Z,11.14
2018-03-29T11:57:30.607Z,11.18
2018-03-29T11:58:30.560Z,11.11
2018-03-29T11:59:30.511Z,11.19
2018-03-29T12:00:30.466Z,11.24
2018-03-29T12:01:30.416Z,11.36
2018-03-29T12:02:30.369Z,11.28
2018-03-29T12:03:30.321Z,11.35
2018-03-29T12:04:30.274Z,11.40
2018-03-29T12:05:30.226Z,11.40
2018-03-29T12:06:30.180Z,11.29
2018-03-29T12:07:30.131Z,11.32
2018-03-29T12:08:30.135Z,11.21
2018-03-29T12:09:30.037Z,11.14
2018-03-29T12:10:29.989Z,11.17
2018-03-29T12:11:29.942Z,11.06
2018-03-29T12:12:29.899Z,11.03
2018-03-29T12:13:29.848Z,10.88
2018-03-29T12:14:29.800Z,10.78
2018-03-29T12:15:29.751Z,10.73
2018-03-29T12:16:29.707Z,10.61
2018-03-29T12:17:29.657Z,10.51
2018-03-29T12:18:29.610Z,10.27
2018-03-29T12:19:29.561Z,10.30
2018-03-29T12:20:29.513Z,10.14
2018-03-29T12:21:29.467Z,10.04
2018-03-29T12:22:29.418Z,10.05
2018-03-29T12:23:29.369Z,9.90
2018-03-29T12:24:29.320Z,9.87
2018-03-29T12:25:29.273Z,9.96
2018-03-29T12:26:29.225Z,9.83
2018-03-29T12:27:29.175Z,9.94
2018-03-29T12:28:29.127Z,9.91
2018-03-29T12:29:29.079Z,9.87
2018-03-29T12:30:29.031Z,9.93
2018-03-29T12:31:28.982Z,9.84
2018-03-29T12:32:28.933Z,9.79
2018-03-29T12:33:28.885Z,9.79
2018-03-29T12:34:28.837Z,9.74
2018-03-29T12:35:28.788Z,9.76
2018-03-29T12:36:28.742Z,9.71
2018-03-29T12:37:28.691Z,9.66
2018-03-29T12:38:28.642Z,9.64
2018-03-29T12:39:28.593Z,9.68
2018-03-29T12:40:28.545Z,9.68
2018-03-29T12:41:28.496Z,9.66
2018-03-29T12:42:28.448Z,9.75
2018-03-29T12:43:28.398Z,9.79
2018-03-29T12:44:28.350Z,9.93
2018-03-29T12:45:28.301Z,9.91
2018-03-29T12:46:28.253Z,10.08
2018-03-29T12:47:28.203Z,10.07
2018-03-29T12:48:28.155Z,10.29
2018-03-29T12:49:28.106Z,10.42
2018-03-29T12:50:28.139Z,10.53
2018-03-29T12:51:28.010Z,10.59
2018-03-29T12:52:27.961Z,10.78
2018-03-29T12:53:27.913Z,10.94
2018-03-29T12:54:27.865Z,11.04
2018-03-29T12:55:27.816Z,11.03
2018-03-29T12:56:27.769Z,11.10
2018-03-29T12:57:27.721Z,11.19
2018-03-29T12:58:27.674Z,11.36
2018-03-29T12:59:27.630Z,11.37
2018-03-29T13:00:27.578Z,11.42
2018-03-29T13:01:27.531Z,11.47
2018-03-29T13:02:27.484Z,11.46
2018-03-29T13:03:27.435Z,11.46
2018-03-29T13:04:27.388Z,11.57
2018-03-29T13:05:27.342Z,11.49
2018-03-29T13:06:27.295Z,11.46
2018-03-29T13:07:27.246Z,11.39
2018-03-29T13:08:27.199Z,11.33
2018-03-29T13:09:27.152Z,11.27
2018-03-29T13:10:27.105Z,11.21
2018-03-29T13:11:27.108Z,11.14
2018-03-29T13:12:27.010Z,11.11
2018-03-29T13:13:26.963Z,11.10
2018-03-29T13:14:26.916Z,11.02
2018-03-29T13:15:26.934Z,11.00
2018-03-29T13:16:26.876Z,10.81
2018-03-29T13:17:26.774Z,10.70
2018-03-29T13:18:26.726Z,10.63
2018-03-29T13:19:26.677Z,10.56
2018-03-29T13:20:26.630Z,10.52
2018-03-29T13:21:26.583Z,10.47
2018-03-29T13:22:26.536Z,10.42
2018-03-29T13:23:26.487Z,10.45
2018-03-29T13:24:26.439Z,10.27
2018-03-29T13:25:26.391Z,10.23
2018-03-29T13:26:26.346Z,10.20
2018-03-29T13:27:26.295Z,10.18
2018-03-29T13:28:26.247Z,10.20
2018-03-29T13:29:26.209Z,10.29
2018-03-29T13:30:26.152Z,10.33
2018-03-29T13:31:26.110Z,10.26
2018-03-29T13:32:26.106Z,10.33
2018-03-29T13:33:26.008Z,10.27
2018-03-29T13:34:25.962Z,10.26
2018-03-29T13:35:25.915Z,10.33
2018-03-29T13:36:25.869Z,10.36
2018-03-29T13:37:25.815Z,10.41
2018-03-29T13:38:25.767Z,10.47
2018-03-29T13:39:25.719Z,10.61
2018-03-29T13:40:25.671Z,10.64
2018-03-29T13:41:25.624Z,10.79
2018-03-29T13:42:25.576Z,10.88
2018-03-29T13:43:25.542Z,10.96
2018-03-29T13:44:25.479Z,11.07
2018-03-29T13:45:25.432Z,11.07
2018-03-29T13:46:25.384Z,11.09
2018-03-29T13:47:25.336Z,11.11
2018-03-29T13:48:25.339Z,11.11
2018-03-29T13:49:25.241Z,11.14
2018-03-29T13:50:25.194Z,11.17
2018-03-29T13:51:25.146Z,11.32
2018-03-29T13:52:25.098Z,11.33
2018-03-29T13:53:25.051Z,11.22
2018-03-29T13:54:25.004Z,11.33
2018-03-29T13:55:24.955Z,11.36
2018-03-29T13:56:24.913Z,11.36
2018-03-29T13:57:24.862Z,11.39
2018-03-29T13:58:24.814Z,11.33
2018-03-29T13:59:24.816Z,11.37
2018-03-29T14:00:24.720Z,11.40
2018-03-29T14:01:24.674Z,11.40
2018-03-29T14:02:24.629Z,11.39
2018-03-29T14:03:24.577Z,11.44
2018-03-29T14:04:24.531Z,11.29
2018-03-29T14:05:24.483Z,11.37
2018-03-29T14:06:24.437Z,11.32
2018-03-29T14:07:24.392Z,11.25
2018-03-29T14:08:24.342Z,11.24
2018-03-29T14:09:24.296Z,11.24
2018-03-29T14:10:24.248Z,11.19
2018-03-29T14:11:24.202Z,11.15
2018-03-29T14:12:24.155Z,11.14
2018-03-29T14:13:24.106Z,11.10
2018-03-29T14:14:24.059Z,11.14
2018-03-29T14:15:24.011Z,11.14
2018-03-29T14:16:23.964Z,11.09
2018-03-29T14:17:23.927Z,11.06
2018-03-29T14:18:23.871Z,11.04
2018-03-29T14:19:23.821Z,11.04
2018-03-29T14:20:23.780Z,11.10
2018-03-29T14:21:23.728Z,11.02
2018-03-29T14:22:23.681Z,10.99
2018-03-29T14:23:23.633Z,11.02
2018-03-29T14:24:23.585Z,10.99
2018-03-29T14:25:23.544Z,10.99
2018-03-29T14:26:23.491Z,10.97
2018-03-29T14:27:23.443Z,10.91
2018-03-29T14:28:23.396Z,10.89
2018-03-29T14:29:23.349Z,10.97
2018-03-29T14:30:23.302Z,11.04
2018-03-29T14:31:23.253Z,11.04
2018-03-29T14:32:23.206Z,11.03
2018-03-29T14:33:23.162Z,11.09
2018-03-29T14:34:23.112Z,11.09
2018-03-29T14:35:23.063Z,11.07
2018-03-29T14:36:23.021Z,11.10
2018-03-29T14:37:22.969Z,10.99
2018-03-29T14:38:22.924Z,10.96
2018-03-29T14:39:22.874Z,10.94
2018-03-29T14:40:22.832Z,10.92
2018-03-29T14:41:22.779Z,11.02
2018-03-29T14:42:22.731Z,10.99
2018-03-29T14:43:22.689Z,10.99
2018-03-29T14:44:22.635Z,10.91
2018-03-29T14:45:22.588Z,10.89
2018-03-29T14:46:22.541Z,10.97
2018-03-29T14:47:22.492Z,10.94
2018-03-29T14:48:22.445Z,10.96
2018-03-29T14:49:22.398Z,10.96
2018-03-29T14:50:22.350Z,10.99
2018-03-29T14:51:22.301Z,10.97
2018-03-29T14:52:22.254Z,10.97
2018-03-29T14:53:22.207Z,11.06
2018-03-29T14:54:22.159Z,11.10
2018-03-29T14:55:22.111Z,11.09
2018-03-29T14:56:22.064Z,11.10
2018-03-29T14:57:22.016Z,11.15
2018-03-29T14:58:21.969Z,11.04
2018-03-29T14:59:21.921Z,11.06
2018-03-29T15:00:21.872Z,11.07
2018-03-29T15:01:21.825Z,11.10
2018-03-29T15:02:21.778Z,11.03
2018-03-29T15:03:21.732Z,11.10
2018-03-29T15:04:21.683Z,11.07
2018-03-29T15:05:21.636Z,11.07
2018-03-29T15:06:21.588Z,11.06
2018-03-29T15:07:21.585Z,11.04
2018-03-29T15:08:21.493Z,10.99
2018-03-29T15:09:21.445Z,10.96
2018-03-29T15:10:21.398Z,10.89
2018-03-29T15:11:21.351Z,10.92
2018-03-29T15:12:21.302Z,10.74
2018-03-29T15:13:21.255Z,10.71
2018-03-29T15:14:21.207Z,10.67
2018-03-29T15:15:21.160Z,10.66
2018-03-29T15:16:21.111Z,10.63
2018-03-29T15:17:21.064Z,10.52
2018-03-29T15:18:21.016Z,10.51
2018-03-29T15:19:20.968Z,10.60
2018-03-29T15:20:20.920Z,10.63
2018-03-29T15:21:20.873Z,10.51
2018-03-29T15:22:20.825Z,10.66
2018-03-29T15:23:20.782Z,10.67
2018-03-29T15:24:20.728Z,10.67
2018-03-29T15:25:20.681Z,10.70
2018-03-29T15:26:20.634Z,10.68
2018-03-29T15:27:20.585Z,10.63
2018-03-29T15:28:20.544Z,10.64
2018-03-29T15:29:20.489Z,10.64
2018-03-29T15:30:20.442Z,10.66
2018-03-29T15:31:20.393Z,10.66
2018-03-29T15:32:20.346Z,10.64
2018-03-29T15:33:20.298Z,10.64
2018-03-29T15:34:20.250Z,10.67
2018-03-29T15:35:20.201Z,10.68
2018-03-29T15:36:20.154Z,10.63
2018-03-29T15:37:20.171Z,10.60
2018-03-29T15:38:20.059Z,10.61
2018-03-29T15:39:20.010Z,10.66
2018-03-29T15:40:19.963Z,10.55
2018-03-29T15:41:19.916Z,10.63
2018-03-29T15:42:19.898Z,10.53
2018-03-29T15:43:19.818Z,10.47
2018-03-29T15:44:19.771Z,10.51
2018-03-29T15:45:19.723Z,10.41
2018-03-29T15:46:19.678Z,10.44
2018-03-29T15:47:19.626Z,10.42
2018-03-29T15:48:19.578Z,10.30
2018-03-29T15:49:19.531Z,10.25
2018-03-29T15:50:19.485Z,10.15
2018-03-29T15:51:19.434Z,10.14
2018-03-29T15:52:19.386Z,10.05
2018-03-29T15:53:19.339Z,10.11
2018-03-29T15:54:19.295Z,10.11
2018-03-29T15:55:19.244Z,10.08
2018-03-29T15:56:19.202Z,10.02
2018-03-29T15:57:19.191Z,10.04
2018-03-29T15:58:19.097Z,10.11
2018-03-29T15:59:19.049Z,10.12
2018-03-29T16:00:19.000Z,10.05
2018-03-29T16:01:18.952Z,10.15
2018-03-29T16:02:18.904Z,10.14
2018-03-29T16:03:18.855Z,10.14
2018-03-29T16:04:18.807Z,10.07
2018-03-29T16:05:18.759Z,10.17
2018-03-29T16:06:18.711Z,10.22
2018-03-29T16:07:18.668Z,10.20
2018-03-29T16:08:18.614Z,10.07
2018-03-29T16:09:18.565Z,10.04
2018-03-29T16:10:18.517Z,10.12
2018-03-29T16:11:18.468Z,10.09
2018-03-29T16:12:18.421Z,10.07
2018-03-29T16:13:18.371Z,9.94
2018-03-29T16:14:18.324Z,9.94
2018-03-29T16:15:18.274Z,9.96
2018-03-29T16:16:18.226Z,9.97
2018-03-29T16:17:18.178Z,9.89
2018-03-29T16:18:18.130Z,9.96
2018-03-29T16:19:18.081Z,10.02
2018-03-29T16:20:18.033Z,9.91
2018-03-29T16:21:17.985Z,9.96
2018-03-29T16:22:17.936Z,10.01
2018-03-29T16:23:17.887Z,10.02
2018-03-29T16:24:17.839Z,10.01
2018-03-29T16:25:17.791Z,10.11
2018-03-29T16:26:17.742Z,10.05
2018-03-29T16:27:17.693Z,10.04
2018-03-29T16:28:17.652Z,10.07
2018-03-29T16:29:17.597Z,9.91
2018-03-29T16:30:17.549Z,9.96
2018-03-29T16:31:17.500Z,9.93
2018-03-29T16:32:17.452Z,9.86
2018-03-29T16:33:17.404Z,9.76
2018-03-29T16:34:17.356Z,9.69
2018-03-29T16:35:17.307Z,9.64
2018-03-29T16:36:17.258Z,9.61
2018-03-29T16:37:17.210Z,9.56
2018-03-29T16:38:17.162Z,9.42
2018-03-29T16:39:17.131Z,9.46
2018-03-29T16:40:17.065Z,9.29
2018-03-29T16:41:17.025Z,9.31
2018-03-29T16:42:16.969Z,9.24
2018-03-29T16:43:16.919Z,9.17
2018-03-29T16:44:16.870Z,9.14
2018-03-29T16:45:16.822Z,9.11
2018-03-29T16:46:16.774Z,9.14
2018-03-29T16:47:16.732Z,9.23
2018-03-29T16:48:16.675Z,9.18
2018-03-29T16:49:16.628Z,9.15
2018-03-29T16:50:16.583Z,9.17
2018-03-29T16:51:16.530Z,9.20
2018-03-29T16:52:16.483Z,9.20
2018-03-29T16:53:16.433Z,9.21
2018-03-29T16:54:16.383Z,9.14
2018-03-29T16:55:16.334Z,9.18
2018-03-29T16:56:16.286Z,9.23
2018-03-29T16:57:16.237Z,9.18
2018-03-29T16:58:16.188Z,9.21
2018-03-29T16:59:16.139Z,9.18
2018-03-29T17:00:16.091Z,9.11
2018-03-29T17:01:16.042Z,9.18
2018-03-29T17:02:15.993Z,9.10
2018-03-29T17:03:15.944Z,9.02
2018-03-29T17:04:15.895Z,9.08
2018-03-29T17:05:15.847Z,9.01
2018-03-29T17:06:15.799Z,9.01
2018-03-29T17:07:15.748Z,8.98
2018-03-29T17:08:15.699Z,8.99
2018-03-29T17:09:15.684Z,9.08
2018-03-29T17:10:15.602Z,9.17
2018-03-29T17:11:15.552Z,8.98
2018-03-29T17:12:15.503Z,9.01
2018-03-29T17:13:15.454Z,9.02
2018-03-29T17:14:15.406Z,9.01
2018-03-29T17:15:15.356Z,9.02
2018-03-29T17:16:15.308Z,8.99
2018-03-29T17:17:15.260Z,8.95
2018-03-29T17:18:15.210Z,8.84
2018-03-29T17:19:15.161Z,8.86
2018-03-29T17:20:15.113Z,8.73
2018-03-29T17:21:15.064Z,8.71
2018-03-29T17:22:15.028Z,8.68
2018-03-29T17:23:14.967Z,8.59
2018-03-29T17:24:14.917Z,8.50
2018-03-29T17:25:14.869Z,8.47
2018-03-29T17:26:14.820Z,8.44
2018-03-29T17:27:14.770Z,8.47
2018-03-29T17:28:14.722Z,8.53
2018-03-29T17:29:14.674Z,8.55
2018-03-29T17:30:14.624Z,8.50
2018-03-29T17:31:14.574Z,8.52
2018-03-29T17:32:14.525Z,8.55
2018-03-29T17:33:14.477Z,8.43
2018-03-29T17:34:14.428Z,8.41
2018-03-29T17:35:14.378Z,8.38
2018-03-29T17:36:14.329Z,8.38
2018-03-29T17:37:14.280Z,8.29
2018-03-29T17:38:14.232Z,8.25
2018-03-29T17:39:14.181Z,8.11
2018-03-29T17:40:14.132Z,8.16
2018-03-29T17:41:14.097Z,8.12
2018-03-29T17:42:14.034Z,8.00
2018-03-29T17:43:13.984Z,8.00
2018-03-29T17:44:13.939Z,8.04
2018-03-29T17:45:13.885Z,7.97
2018-03-29T17:46:13.836Z,7.86
2018-03-29T17:47:13.786Z,7.97
2018-03-29T17:48:13.745Z,7.80
2018-03-29T17:49:13.687Z,7.80
2018-03-29T17:50:13.638Z,7.79
2018-03-29T17:51:13.587Z,7.71
2018-03-29T17:52:13.538Z,7.71
2018-03-29T17:53:13.498Z,7.61
2018-03-29T17:54:13.450Z,7.71
2018-03-29T17:55:13.390Z,7.79
2018-03-29T17:56:13.341Z,7.72
2018-03-29T17:57:13.296Z,7.74
2018-03-29T17:58:13.292Z,7.82
2018-03-29T17:59:13.191Z,7.82
2018-03-29T18:00:13.144Z,7.79
2018-03-29T18:01:13.095Z,7.82
2018-03-29T18:02:13.042Z,7.87
2018-03-29T18:03:12.992Z,7.86
2018-03-29T18:04:12.943Z,7.95
2018-03-29T18:05:12.893Z,7.93
2018-03-29T18:06:12.844Z,7.92
2018-03-29T18:07:12.793Z,7.95
2018-03-29T18:08:12.744Z,7.85
2018-03-29T18:09:12.695Z,7.92
2018-03-29T18:10:12.645Z,7.87
2018-03-29T18:11:12.595Z,7.97
2018-03-29T18:12:12.551Z,7.97
2018-03-29T18:13:12.500Z,7.89
2018-03-29T18:14:12.447Z,7.97
2018-03-29T18:15:12.395Z,7.90
2018-03-29T18:16:12.348Z,7.92
2018-03-29T18:17:12.302Z,8.00
2018-03-29T18:18:12.247Z,7.89
2018-03-29T18:19:12.196Z,7.92
2018-03-29T18:20:12.147Z,7.97
2018-03-29T18:21:12.097Z,7.95
2018-03-29T18:22:12.048Z,7.98
2018-03-29T18:23:11.997Z,7.98
2018-03-29T18:24:11.948Z,8.00
2018-03-29T18:25:11.898Z,8.04
2018-03-29T18:26:11.920Z,7.98
2018-03-29T18:27:11.799Z,8.11
2018-03-29T18:28:11.751Z,8.15
2018-03-29T18:29:11.699Z,8.01
2018-03-29T18:30:11.649Z,8.18
2018-03-29T18:31:11.598Z,8.19
2018-03-29T18:32:11.549Z,8.11
2018-03-29T18:33:11.500Z,8.19
2018-03-29T18:34:11.450Z,8.23
2018-03-29T18:35:11.402Z,8.18
2018-03-29T18:36:11.350Z,8.15
2018-03-29T18:37:11.303Z,8.18
2018-03-29T18:38:11.252Z,8.20
2018-03-29T18:39:11.200Z,8.26
2018-03-29T18:40:11.154Z,8.22
2018-03-29T18:41:11.107Z,8.29
2018-03-29T18:42:11.052Z,8.23
2018-03-29T18:43:11.002Z,8.26
2018-03-29T18:44:10.952Z,8.30
2018-03-29T18:45:10.902Z,8.34
2018-03-29T18:46:10.853Z,8.33
2018-03-29T18:47:10.803Z,8.33
2018-03-29T18:48:10.754Z,8.33
2018-03-29T18:49:10.704Z,8.41
2018-03-29T18:50:10.654Z,8.38
2018-03-29T18:51:10.604Z,8.40
2018-03-29T18:52:10.556Z,8.37
2018-03-29T18:53:10.506Z,8.44
2018-03-29T18:54:10.459Z,8.44
2018-03-29T18:55:10.406Z,8.43
2018-03-29T18:56:10.357Z,8.41
2018-03-29T18:57:10.307Z,8.44
2018-03-29T18:58:10.265Z,8.40
2018-03-29T18:59:10.212Z,8.43
2018-03-29T19:00:10.159Z,8.47
2018-03-29T19:01:10.110Z,8.43
2018-03-29T19:02:10.061Z,8.44
2018-03-29T19:03:10.011Z,8.44
2018-03-29T19:04:09.962Z,8.40
2018-03-29T19:05:09.916Z,8.38
2018-03-29T19:06:09.864Z,8.28
2018-03-29T19:07:09.813Z,8.29
2018-03-29T19:08:09.764Z,8.37
2018-03-29T19:09:09.716Z,8.30
2018-03-29T19:10:09.665Z,8.37
2018-03-29T19:11:09.615Z,8.40
2018-03-29T19:12:09.566Z,8.43
2018-03-29T19:13:09.568Z,8.29
2018-03-29T19:14:09.468Z,8.28
2018-03-29T19:15:09.418Z,8.29
2018-03-29T19:16:09.372Z,8.25
2018-03-29T19:17:09.320Z,8.19
2018-03-29T19:18:09.271Z,8.16
2018-03-29T19:19:09.221Z,8.18
2018-03-29T19:20:09.271Z,8.19